Carthage, Missouri
Current Conditions -  °F | °C
As of 4:53 AM on Saturday 22 Nov 2014 (Local Time) from KJLN Reporting Station
Overcast Overcast  
Wind Chill: 56°   Ceiling: 1900
Heat Index: 56°   Visibility: 10mi
Dew Point: 48°   Wind: 18mph
Humidity: 75%   Direction: 190°S
Pressure: 30.06"   Gusts: NA
Location:  37.18°N, 94.31°W
Report Text: KJLN 221053Z AUTO 19016KT 10SM OVC019 13/09 A3006 RMK AO2 SLP176 T01330089
Loading
Personal Weather Stations






























Interactive Weather Map New forecast layout! Learn more

10-Day Weather Forecast

Advertisements
Track Severe Weather on mobile